sensor_id;sensor_type;location;lat;lon;timestamp;pressure;altitude;pressure_sealevel;temperature;humidity
26697;BME280;14312;52.614;13.496;2023-04-06T00:00:23;101470.84;;;6.97;50.79
26697;BME280;14312;52.614;13.496;2023-04-06T00:03:09;101470.84;;;6.97;50.85
26697;BME280;14312;52.614;13.496;2023-04-06T00:05:55;101469.25;;;6.96;50.58
26697;BME280;14312;52.614;13.496;2023-04-06T00:08:41;101465.16;;;6.93;50.62
26697;BME280;14312;52.614;13.496;2023-04-06T00:11:27;101464.31;;;6.93;50.72
26697;BME280;14312;52.614;13.496;2023-04-06T00:14:13;101461.06;;;6.91;50.58
26697;BME280;14312;52.614;13.496;2023-04-06T00:17:00;101456.16;;;6.88;50.77
26697;BME280;14312;52.614;13.496;2023-04-06T00:19:46;101459.19;;;6.85;50.82
26697;BME280;14312;52.614;13.496;2023-04-06T00:22:32;101457.53;;;6.84;51.27
26697;BME280;14312;52.614;13.496;2023-04-06T00:25:18;101456.94;;;6.82;51.53
26697;BME280;14312;52.614;13.496;2023-04-06T00:28:04;101458.97;;;6.80;51.71
26697;BME280;14312;52.614;13.496;2023-04-06T00:30:50;101463.81;;;6.76;51.99
26697;BME280;14312;52.614;13.496;2023-04-06T00:33:38;101449.16;;;6.74;52.10
26697;BME280;14312;52.614;13.496;2023-04-06T00:36:24;101453.81;;;6.72;51.91
26697;BME280;14312;52.614;13.496;2023-04-06T00:39:11;101444.63;;;6.67;51.92
26697;BME280;14312;52.614;13.496;2023-04-06T00:41:57;101449.94;;;6.67;51.90
26697;BME280;14312;52.614;13.496;2023-04-06T00:44:43;101455.22;;;6.67;52.00
26697;BME280;14312;52.614;13.496;2023-04-06T00:47:29;101441.97;;;6.67;52.35
26697;BME280;14312;52.614;13.496;2023-04-06T00:50:16;101449.94;;;6.67;52.29
26697;BME280;14312;52.614;13.496;2023-04-06T00:53:02;101447.06;;;6.69;52.09
26697;BME280;14312;52.614;13.496;2023-04-06T00:55:48;101442.59;;;6.69;52.23
26697;BME280;14312;52.614;13.496;2023-04-06T00:58:34;101440.13;;;6.68;52.06
26697;BME280;14312;52.614;13.496;2023-04-06T01:01:24;101442.59;;;6.69;52.22
26697;BME280;14312;52.614;13.496;2023-04-06T01:04:10;101445.88;;;6.72;52.23
26697;BME280;14312;52.614;13.496;2023-04-06T01:06:56;101445.88;;;6.72;52.04
26697;BME280;14312;52.614;13.496;2023-04-06T01:09:42;101440.56;;;6.72;52.05
26697;BME280;14312;52.614;13.496;2023-04-06T01:12:28;101449.16;;;6.74;52.32
26697;BME280;14312;52.614;13.496;2023-04-06T01:15:15;101447.50;;;6.73;51.97
26697;BME280;14312;52.614;13.496;2023-04-06T01:18:01;101444.84;;;6.73;52.11
26697;BME280;14312;52.614;13.496;2023-04-06T01:20:48;101444.22;;;6.71;51.74
26697;BME280;14312;52.614;13.496;2023-04-06T01:23:34;101440.34;;;6.66;51.85
26697;BME280;14312;52.614;13.496;2023-04-06T01:26:20;101445.00;;;6.64;51.82
26697;BME280;14312;52.614;13.496;2023-04-06T01:29:06;101443.78;;;6.60;51.93
26697;BME280;14312;52.614;13.496;2023-04-06T01:31:52;101444.16;;;6.57;51.76
26697;BME280;14312;52.614;13.496;2023-04-06T01:34:38;101441.25;;;6.52;52.00
26697;BME280;14312;52.614;13.496;2023-04-06T01:37:25;101441.63;;;6.49;52.12
26697;BME280;14312;52.614;13.496;2023-04-06T01:40:11;101448.34;;;6.45;52.14
26697;BME280;14312;52.614;13.496;2023-04-06T01:42:57;101441.59;;;6.43;52.19
26697;BME280;14312;52.614;13.496;2023-04-06T01:45:43;101440.13;;;6.40;52.38
26697;BME280;14312;52.614;13.496;2023-04-06T01:48:29;101441.19;;;6.39;52.17
26697;BME280;14312;52.614;13.496;2023-04-06T01:51:15;101444.00;;;6.38;52.13
26697;BME280;14312;52.614;13.496;2023-04-06T01:54:02;101443.19;;;6.37;52.31
26697;BME280;14312;52.614;13.496;2023-04-06T01:56:48;101442.97;;;6.32;52.19
26697;BME280;14312;52.614;13.496;2023-04-06T01:59:36;101442.31;;;6.30;52.38
26697;BME280;14312;52.614;13.496;2023-04-06T02:02:22;101435.75;;;6.26;52.42
26697;BME280;14312;52.614;13.496;2023-04-06T02:05:08;101436.97;;;6.23;52.27
26697;BME280;14312;52.614;13.496;2023-04-06T02:07:54;101438.16;;;6.21;52.42
26697;BME280;14312;52.614;13.496;2023-04-06T02:10:40;101440.56;;;6.16;52.34
26697;BME280;14312;52.614;13.496;2023-04-06T02:13:26;101443.59;;;6.13;52.29
26697;BME280;14312;52.614;13.496;2023-04-06T02:16:12;101445.00;;;6.09;52.29
26697;BME280;14312;52.614;13.496;2023-04-06T02:18:58;101443.13;;;6.03;52.15
26697;BME280;14312;52.614;13.496;2023-04-06T02:21:44;101442.03;;;5.97;52.33
26697;BME280;14312;52.614;13.496;2023-04-06T02:24:30;101446.06;;;5.93;52.12
26697;BME280;14312;52.614;13.496;2023-04-06T02:27:16;101442.34;;;5.87;52.43
26697;BME280;14312;52.614;13.496;2023-04-06T02:30:03;101443.91;;;5.82;52.54
26697;BME280;14312;52.614;13.496;2023-04-06T02:32:50;101445.44;;;5.76;52.61
26697;BME280;14312;52.614;13.496;2023-04-06T02:35:36;101445.84;;;5.73;52.38
26697;BME280;14312;52.614;13.496;2023-04-06T02:38:22;101446.59;;;5.67;52.56
26697;BME280;14312;52.614;13.496;2023-04-06T02:41:07;101451.44;;;5.64;52.53
26697;BME280;14312;52.614;13.496;2023-04-06T02:43:53;101442.44;;;5.58;52.44
26697;BME280;14312;52.614;13.496;2023-04-06T02:46:40;101441.53;;;5.51;52.70
26697;BME280;14312;52.614;13.496;2023-04-06T02:49:26;101450.84;;;5.47;52.60
26697;BME280;14312;52.614;13.496;2023-04-06T02:52:11;101442.66;;;5.42;52.53
26697;BME280;14312;52.614;13.496;2023-04-06T02:54:57;101441.75;;;5.35;52.63
26697;BME280;14312;52.614;13.496;2023-04-06T02:57:43;101449.41;;;5.30;52.78
26697;BME280;14312;52.614;13.496;2023-04-06T03:00:29;101448.53;;;5.23;52.72
26697;BME280;14312;52.614;13.496;2023-04-06T03:03:15;101452.09;;;5.15;52.87
26697;BME280;14312;52.614;13.496;2023-04-06T03:06:01;101459.94;;;5.08;52.96
26697;BME280;14312;52.614;13.496;2023-04-06T03:08:48;101458.19;;;5.01;52.66
26697;BME280;14312;52.614;13.496;2023-04-06T03:11:34;101462.41;;;4.95;53.11
26697;BME280;14312;52.614;13.496;2023-04-06T03:14:20;101455.38;;;4.88;53.17
26697;BME280;14312;52.614;13.496;2023-04-06T03:17:07;101456.72;;;4.84;53.34
26697;BME280;14312;52.614;13.496;2023-04-06T03:19:53;101455.66;;;4.78;53.25
26697;BME280;14312;52.614;13.496;2023-04-06T03:22:39;101460.66;;;4.73;53.37
26697;BME280;14312;52.614;13.496;2023-04-06T03:25:25;101464.63;;;4.69;53.52
26697;BME280;14312;52.614;13.496;2023-04-06T03:28:11;101467.66;;;4.66;53.73
26697;BME280;14312;52.614;13.496;2023-04-06T03:30:57;101461.09;;;4.62;53.54
26697;BME280;14312;52.614;13.496;2023-04-06T03:33:43;101458.66;;;4.60;53.63
26697;BME280;14312;52.614;13.496;2023-04-06T03:36:29;101462.63;;;4.56;53.61
26697;BME280;14312;52.614;13.496;2023-04-06T03:39:16;101466.25;;;4.55;53.76
26697;BME280;14312;52.614;13.496;2023-04-06T03:42:02;101461.38;;;4.52;53.77
26697;BME280;14312;52.614;13.496;2023-04-06T03:44:48;101460.88;;;4.49;54.01
26697;BME280;14312;52.614;13.496;2023-04-06T03:47:34;101471.44;;;4.49;53.95
26697;BME280;14312;52.614;13.496;2023-04-06T03:50:20;101469.78;;;4.48;54.02
26697;BME280;14312;52.614;13.496;2023-04-06T03:53:06;101473.47;;;4.47;54.09
26697;BME280;14312;52.614;13.496;2023-04-06T03:55:52;101477.09;;;4.46;54.07
26697;BME280;14312;52.614;13.496;2023-04-06T03:58:38;101477.44;;;4.43;54.05
26697;BME280;14312;52.614;13.496;2023-04-06T04:01:24;101481.06;;;4.42;54.05
26697;BME280;14312;52.614;13.496;2023-04-06T04:04:10;101486.72;;;4.39;54.05
26697;BME280;14312;52.614;13.496;2023-04-06T04:06:56;101479.81;;;4.38;54.00
26697;BME280;14312;52.614;13.496;2023-04-06T04:09:42;101483.78;;;4.33;53.92
26697;BME280;14312;52.614;13.496;2023-04-06T04:12:28;101488.44;;;4.31;54.23
26697;BME280;14312;52.614;13.496;2023-04-06T04:15:14;101487.78;;;4.29;54.15
26697;BME280;14312;52.614;13.496;2023-04-06T04:18:00;101491.78;;;4.25;54.30
26697;BME280;14312;52.614;13.496;2023-04-06T04:20:46;101489.16;;;4.25;54.27
26697;BME280;14312;52.614;13.496;2023-04-06T04:23:32;101497.41;;;4.22;54.26
26697;BME280;14312;52.614;13.496;2023-04-06T04:26:18;101494.13;;;4.20;54.45
26697;BME280;14312;52.614;13.496;2023-04-06T04:29:06;101490.84;;;4.18;54.31
26697;BME280;14312;52.614;13.496;2023-04-06T04:31:52;101498.94;;;4.17;54.36
26697;BME280;14312;52.614;13.496;2023-04-06T04:34:38;101490.53;;;4.13;54.24
26697;BME280;14312;52.614;13.496;2023-04-06T04:37:26;101490.75;;;4.12;54.25
26697;BME280;14312;52.614;13.496;2023-04-06T04:40:13;101498.81;;;4.10;54.49
26697;BME280;14312;52.614;13.496;2023-04-06T04:42:59;101505.25;;;4.08;54.43
26697;BME280;14312;52.614;13.496;2023-04-06T04:45:44;101494.88;;;4.06;54.44
26697;BME280;14312;52.614;13.496;2023-04-06T04:48:30;101496.91;;;4.04;54.53
26697;BME280;14312;52.614;13.496;2023-04-06T04:51:16;101497.88;;;4.03;54.46
26697;BME280;14312;52.614;13.496;2023-04-06T04:54:02;101499.88;;;4.01;54.49
26697;BME280;14312;52.614;13.496;2023-04-06T04:56:49;101492.94;;;4.00;54.61
26697;BME280;14312;52.614;13.496;2023-04-06T04:59:35;101500.84;;;4.00;54.93
26697;BME280;14312;52.614;13.496;2023-04-06T05:02:22;101507.94;;;4.00;54.98
26697;BME280;14312;52.614;13.496;2023-04-06T05:05:08;101499.03;;;4.01;54.79
26697;BME280;14312;52.614;13.496;2023-04-06T05:07:54;101499.03;;;4.01;54.85
26697;BME280;14312;52.614;13.496;2023-04-06T05:10:40;101497.88;;;4.03;55.01
26697;BME280;14312;52.614;13.496;2023-04-06T05:13:26;101499.53;;;4.04;54.65
26697;BME280;14312;52.614;13.496;2023-04-06T05:16:12;101496.53;;;4.07;55.10
26697;BME280;14312;52.614;13.496;2023-04-06T05:18:58;101503.09;;;4.11;55.17
26697;BME280;14312;52.614;13.496;2023-04-06T05:21:44;101500.09;;;4.14;55.22
26697;BME280;14312;52.614;13.496;2023-04-06T05:24:30;101504.66;;;4.20;55.24
26697;BME280;14312;52.614;13.496;2023-04-06T05:27:17;101499.03;;;4.23;55.36
26697;BME280;14312;52.614;13.496;2023-04-06T05:30:03;101510.88;;;4.27;55.20
26697;BME280;14312;52.614;13.496;2023-04-06T05:32:50;101510.97;;;4.34;55.29
26697;BME280;14312;52.614;13.496;2023-04-06T05:35:36;101512.28;;;4.38;55.28
26697;BME280;14312;52.614;13.496;2023-04-06T05:38:22;101511.56;;;4.44;55.33
26697;BME280;14312;52.614;13.496;2023-04-06T05:41:08;101515.31;;;4.50;55.31
26697;BME280;14312;52.614;13.496;2023-04-06T05:43:54;101515.25;;;4.58;55.56
26697;BME280;14312;52.614;13.496;2023-04-06T05:46:40;101517.81;;;4.66;55.54
26697;BME280;14312;52.614;13.496;2023-04-06T05:49:26;101515.72;;;4.76;55.75
26697;BME280;14312;52.614;13.496;2023-04-06T05:52:12;101524.22;;;4.86;55.66
26697;BME280;14312;52.614;13.496;2023-04-06T05:54:58;101522.13;;;4.96;55.78
26697;BME280;14312;52.614;13.496;2023-04-06T05:57:44;101519.03;;;5.07;55.75
26697;BME280;14312;52.614;13.496;2023-04-06T06:00:30;101519.78;;;5.16;56.03
26697;BME280;14312;52.614;13.496;2023-04-06T06:03:16;101520.28;;;5.26;55.76
26697;BME280;14312;52.614;13.496;2023-04-06T06:06:03;101522.66;;;5.36;55.96
26697;BME280;14312;52.614;13.496;2023-04-06T06:08:49;101521.56;;;5.45;56.02
26697;BME280;14312;52.614;13.496;2023-04-06T06:11:35;101520.09;;;5.57;56.38
26697;BME280;14312;52.614;13.496;2023-04-06T06:14:23;101519.41;;;5.70;56.18
26697;BME280;14312;52.614;13.496;2023-04-06T06:17:09;101520.59;;;5.82;55.97
26697;BME280;14312;52.614;13.496;2023-04-06T06:19:55;101518.94;;;5.96;56.09
26697;BME280;14312;52.614;13.496;2023-04-06T06:22:41;101524.72;;;6.06;55.98
26697;BME280;14312;52.614;13.496;2023-04-06T06:25:27;101517.94;;;6.18;55.57
26697;BME280;14312;52.614;13.496;2023-04-06T06:28:16;101522.09;;;6.27;55.67
26697;BME280;14312;52.614;13.496;2023-04-06T06:31:02;101518.94;;;6.38;55.70
26697;BME280;14312;52.614;13.496;2023-04-06T06:33:48;101524.09;;;6.46;55.58
26697;BME280;14312;52.614;13.496;2023-04-06T06:36:41;101523.13;;;6.54;55.18
26697;BME280;14312;52.614;13.496;2023-04-06T06:39:29;101528.50;;;6.60;55.37
26697;BME280;14312;52.614;13.496;2023-04-06T06:42:18;101526.50;;;6.69;55.49
26697;BME280;14312;52.614;13.496;2023-04-06T06:45:06;101519.25;;;6.78;55.61
26697;BME280;14312;52.614;13.496;2023-04-06T06:47:52;101526.69;;;6.89;55.51
26697;BME280;14312;52.614;13.496;2023-04-06T06:50:38;101526.31;;;6.98;55.49
26697;BME280;14312;52.614;13.496;2023-04-06T06:53:24;101531.09;;;7.10;55.62
26697;BME280;14312;52.614;13.496;2023-04-06T06:56:10;101527.69;;;7.22;55.66
26697;BME280;14312;52.614;13.496;2023-04-06T06:58:57;101530.41;;;7.35;55.56
26697;BME280;14312;52.614;13.496;2023-04-06T07:01:43;101529.84;;;7.46;55.36
26697;BME280;14312;52.614;13.496;2023-04-06T07:04:29;101536.81;;;7.61;55.35
26697;BME280;14312;52.614;13.496;2023-04-06T07:07:16;101537.69;;;7.74;55.00
26697;BME280;14312;52.614;13.496;2023-04-06T07:10:02;101537.75;;;7.88;55.03
26697;BME280;14312;52.614;13.496;2023-04-06T07:12:48;101535.34;;;7.99;54.52
26697;BME280;14312;52.614;13.496;2023-04-06T07:15:34;101530.88;;;8.13;54.07
26697;BME280;14312;52.614;13.496;2023-04-06T07:18:22;101534.97;;;8.29;53.94
26697;BME280;14312;52.614;13.496;2023-04-06T07:21:09;101525.63;;;8.39;53.15
26697;BME280;14312;52.614;13.496;2023-04-06T07:23:55;101529.09;;;8.53;52.86
26697;BME280;14312;52.614;13.496;2023-04-06T07:26:42;101528.69;;;8.62;53.10
26697;BME280;14312;52.614;13.496;2023-04-06T07:29:28;101527.28;;;8.73;52.73
26697;BME280;14312;52.614;13.496;2023-04-06T07:32:20;101528.91;;;8.87;51.98
26697;BME280;14312;52.614;13.496;2023-04-06T07:35:07;101529.28;;;8.97;52.34
26697;BME280;14312;52.614;13.496;2023-04-06T07:37:53;101523.91;;;9.11;52.18
26697;BME280;14312;52.614;13.496;2023-04-06T07:40:40;101525.97;;;9.22;51.50
26697;BME280;14312;52.614;13.496;2023-04-06T07:43:26;101527.13;;;9.32;51.74
26697;BME280;14312;52.614;13.496;2023-04-06T07:46:12;101525.47;;;9.45;51.14
26697;BME280;14312;52.614;13.496;2023-04-06T07:49:01;101529.94;;;9.57;51.11
26697;BME280;14312;52.614;13.496;2023-04-06T07:51:48;101520.44;;;9.68;50.52
26697;BME280;14312;52.614;13.496;2023-04-06T07:54:34;101524.09;;;9.80;50.09
26697;BME280;14312;52.614;13.496;2023-04-06T07:57:20;101531.41;;;9.91;50.38
26697;BME280;14312;52.614;13.496;2023-04-06T08:00:10;101527.22;;;10.02;50.52
26697;BME280;14312;52.614;13.496;2023-04-06T08:02:56;101530.44;;;10.17;49.60
26697;BME280;14312;52.614;13.496;2023-04-06T08:05:42;101527.88;;;10.35;47.24
26697;BME280;14312;52.614;13.496;2023-04-06T08:08:28;101533.16;;;10.42;46.99
26697;BME280;14312;52.614;13.496;2023-04-06T08:11:14;101526.13;;;10.47;46.93
26697;BME280;14312;52.614;13.496;2023-04-06T08:14:01;101526.91;;;10.54;46.35
26697;BME280;14312;52.614;13.496;2023-04-06T08:16:47;101521.31;;;10.63;46.40
26697;BME280;14312;52.614;13.496;2023-04-06T08:19:33;101528.41;;;10.69;47.06
26697;BME280;14312;52.614;13.496;2023-04-06T08:22:19;101521.78;;;10.78;48.30
26697;BME280;14312;52.614;13.496;2023-04-06T08:25:05;101532.03;;;10.99;48.51
26697;BME280;14312;52.614;13.496;2023-04-06T08:27:51;101524.34;;;11.27;45.97
26697;BME280;14312;52.614;13.496;2023-04-06T08:30:41;101518.34;;;11.50;45.47
26697;BME280;14312;52.614;13.496;2023-04-06T08:33:28;101522.00;;;11.67;46.37
26697;BME280;14312;52.614;13.496;2023-04-06T08:36:14;101522.50;;;11.94;44.54
26697;BME280;14312;52.614;13.496;2023-04-06T08:39:00;101520.38;;;12.14;44.47
26697;BME280;14312;52.614;13.496;2023-04-06T08:41:47;101509.16;;;12.36;44.41
26697;BME280;14312;52.614;13.496;2023-04-06T08:44:33;101512.66;;;12.60;43.59
26697;BME280;14312;52.614;13.496;2023-04-06T08:47:19;101516.97;;;12.84;44.02
26697;BME280;14312;52.614;13.496;2023-04-06T08:50:06;101520.22;;;13.09;44.73
26697;BME280;14312;52.614;13.496;2023-04-06T08:52:53;101518.00;;;13.41;43.46
26697;BME280;14312;52.614;13.496;2023-04-06T08:55:42;101520.19;;;13.72;42.44
26697;BME280;14312;52.614;13.496;2023-04-06T08:58:34;101511.03;;;13.97;42.71
26697;BME280;14312;52.614;13.496;2023-04-06T09:01:23;101507.97;;;14.22;44.30
26697;BME280;14312;52.614;13.496;2023-04-06T09:04:11;101509.06;;;14.54;42.14
26697;BME280;14312;52.614;13.496;2023-04-06T09:06:59;101514.09;;;14.84;38.64
26697;BME280;14312;52.614;13.496;2023-04-06T09:09:45;101511.88;;;14.98;39.71
26697;BME280;14312;52.614;13.496;2023-04-06T09:12:34;101504.81;;;15.13;38.76
26697;BME280;14312;52.614;13.496;2023-04-06T09:15:21;101502.03;;;15.25;37.21
26697;BME280;14312;52.614;13.496;2023-04-06T09:18:07;101495.91;;;15.29;36.26
26697;BME280;14312;52.614;13.496;2023-04-06T09:21:05;101502.03;;;15.25;36.48
26697;BME280;14312;52.614;13.496;2023-04-06T09:24:01;101495.28;;;15.22;35.73
26697;BME280;14312;52.614;13.496;2023-04-06T09:26:47;101503.84;;;15.19;35.84
26697;BME280;14312;52.614;13.496;2023-04-06T09:29:33;101497.38;;;15.20;37.52
26697;BME280;14312;52.614;13.496;2023-04-06T09:32:20;101492.72;;;15.33;37.37
26697;BME280;14312;52.614;13.496;2023-04-06T09:35:09;101498.38;;;15.53;37.44
26697;BME280;14312;52.614;13.496;2023-04-06T09:37:56;101491.59;;;15.72;36.64
26697;BME280;14312;52.614;13.496;2023-04-06T09:40:50;101488.59;;;15.95;35.32
26697;BME280;14312;52.614;13.496;2023-04-06T09:43:36;101482.25;;;16.06;35.21
26697;BME280;14312;52.614;13.496;2023-04-06T09:46:22;101487.47;;;16.18;33.87
26697;BME280;14312;52.614;13.496;2023-04-06T09:49:10;101484.56;;;16.25;33.41
26697;BME280;14312;52.614;13.496;2023-04-06T09:52:02;101479.47;;;16.28;35.10
26697;BME280;14312;52.614;13.496;2023-04-06T09:54:50;101471.75;;;16.37;34.12
26697;BME280;14312;52.614;13.496;2023-04-06T09:57:57;101475.63;;;16.51;36.02
26697;BME280;14312;52.614;13.496;2023-04-06T10:00:51;101469.31;;;16.67;35.36
26697;BME280;14312;52.614;13.496;2023-04-06T10:03:49;101465.63;;;16.83;34.24
26697;BME280;14312;52.614;13.496;2023-04-06T10:06:38;101461.41;;;16.98;34.05
26697;BME280;14312;52.614;13.496;2023-04-06T10:09:25;101464.66;;;17.05;33.14
26697;BME280;14312;52.614;13.496;2023-04-06T10:12:14;101464.13;;;17.03;34.36
26697;BME280;14312;52.614;13.496;2023-04-06T10:15:01;101466.81;;;17.08;34.43
26697;BME280;14312;52.614;13.496;2023-04-06T10:17:47;101459.88;;;17.17;35.16
26697;BME280;14312;52.614;13.496;2023-04-06T10:20:53;101461.56;;;17.38;35.42
26697;BME280;14312;52.614;13.496;2023-04-06T10:23:44;101467.00;;;17.58;34.86
26697;BME280;14312;52.614;13.496;2023-04-06T10:26:30;101457.88;;;17.70;35.28
26697;BME280;14312;52.614;13.496;2023-04-06T10:29:17;101464.38;;;17.69;31.57
26697;BME280;14312;52.614;13.496;2023-04-06T10:32:03;101461.56;;;17.48;31.53
26697;BME280;14312;52.614;13.496;2023-04-06T10:34:49;101463.13;;;17.19;31.12
26697;BME280;14312;52.614;13.496;2023-04-06T10:37:51;101449.53;;;16.94;31.70
26697;BME280;14312;52.614;13.496;2023-04-06T10:40:39;101456.44;;;16.74;32.51
26697;BME280;14312;52.614;13.496;2023-04-06T10:43:25;101463.56;;;16.59;32.02
26697;BME280;14312;52.614;13.496;2023-04-06T10:46:11;101457.22;;;16.38;31.77
26697;BME280;14312;52.614;13.496;2023-04-06T10:48:58;101461.31;;;16.14;32.49
26697;BME280;14312;52.614;13.496;2023-04-06T10:51:51;101459.00;;;15.90;33.05
26697;BME280;14312;52.614;13.496;2023-04-06T10:54:41;101462.59;;;15.74;33.86
26697;BME280;14312;52.614;13.496;2023-04-06T10:57:29;101453.88;;;15.62;34.69
26697;BME280;14312;52.614;13.496;2023-04-06T11:00:17;101446.88;;;15.61;35.72
26697;BME280;14312;52.614;13.496;2023-04-06T11:03:03;101444.88;;;15.78;35.52
26697;BME280;14312;52.614;13.496;2023-04-06T11:05:50;101440.84;;;16.08;32.12
26697;BME280;14312;52.614;13.496;2023-04-06T11:08:38;101437.19;;;16.19;31.62
26697;BME280;14312;52.614;13.496;2023-04-06T11:11:25;101443.09;;;16.21;29.48
26697;BME280;14312;52.614;13.496;2023-04-06T11:14:12;101440.03;;;16.07;29.85
26697;BME280;14312;52.614;13.496;2023-04-06T11:16:58;101441.28;;;15.94;30.20
26697;BME280;14312;52.614;13.496;2023-04-06T11:19:44;101444.88;;;15.78;29.79
26697;BME280;14312;52.614;13.496;2023-04-06T11:22:30;101436.09;;;15.56;31.18
26697;BME280;14312;52.614;13.496;2023-04-06T11:25:17;101426.94;;;15.35;31.83
26697;BME280;14312;52.614;13.496;2023-04-06T11:28:03;101432.41;;;15.18;32.22
26697;BME280;14312;52.614;13.496;2023-04-06T11:30:49;101434.91;;;15.03;32.69
26697;BME280;14312;52.614;13.496;2023-04-06T11:33:36;101424.53;;;14.90;32.29
26697;BME280;14312;52.614;13.496;2023-04-06T11:36:23;101427.09;;;14.80;32.49
26697;BME280;14312;52.614;13.496;2023-04-06T11:39:10;101419.44;;;14.72;32.98
26697;BME280;14312;52.614;13.496;2023-04-06T11:42:00;101411.34;;;14.67;33.20
26697;BME280;14312;52.614;13.496;2023-04-06T11:44:53;101418.28;;;14.63;33.87
26697;BME280;14312;52.614;13.496;2023-04-06T11:47:39;101410.28;;;14.68;33.87
26697;BME280;14312;52.614;13.496;2023-04-06T11:50:32;101411.56;;;14.82;32.68
26697;BME280;14312;52.614;13.496;2023-04-06T11:53:19;101409.59;;;14.99;31.50
26697;BME280;14312;52.614;13.496;2023-04-06T11:56:05;101416.72;;;15.10;30.32
26697;BME280;14312;52.614;13.496;2023-04-06T11:58:53;101417.31;;;15.12;31.03
26697;BME280;14312;52.614;13.496;2023-04-06T12:01:46;101415.06;;;15.04;31.51
26697;BME280;14312;52.614;13.496;2023-04-06T12:04:32;101412.25;;;14.94;32.38
26697;BME280;14312;52.614;13.496;2023-04-06T12:07:18;101399.34;;;14.91;33.11
26697;BME280;14312;52.614;13.496;2023-04-06T12:10:04;101411.81;;;15.02;33.19
26697;BME280;14312;52.614;13.496;2023-04-06T12:12:51;101400.38;;;15.12;33.79
26697;BME280;14312;52.614;13.496;2023-04-06T12:15:36;101407.22;;;15.24;33.58
26697;BME280;14312;52.614;13.496;2023-04-06T12:18:23;101403.28;;;15.32;33.84
26697;BME280;14312;52.614;13.496;2023-04-06T12:21:09;101406.59;;;15.39;33.86
26697;BME280;14312;52.614;13.496;2023-04-06T12:23:55;101397.75;;;15.44;34.08
26697;BME280;14312;52.614;13.496;2023-04-06T12:26:42;101398.34;;;15.46;34.39
26697;BME280;14312;52.614;13.496;2023-04-06T12:29:28;101396.22;;;15.48;34.30
26697;BME280;14312;52.614;13.496;2023-04-06T12:32:14;101403.75;;;15.51;34.41
26697;BME280;14312;52.614;13.496;2023-04-06T12:35:01;101396.28;;;15.53;34.63
26697;BME280;14312;52.614;13.496;2023-04-06T12:37:47;101392.00;;;15.57;34.45
26697;BME280;14312;52.614;13.496;2023-04-06T12:40:37;101394.25;;;15.65;34.65
26697;BME280;14312;52.614;13.496;2023-04-06T12:43:23;101397.00;;;15.70;34.21
26697;BME280;14312;52.614;13.496;2023-04-06T12:46:10;101393.53;;;15.75;33.96
26697;BME280;14312;52.614;13.496;2023-04-06T12:48:56;101393.91;;;15.88;34.45
26697;BME280;14312;52.614;13.496;2023-04-06T12:51:43;101384.72;;;16.16;34.40
26697;BME280;14312;52.614;13.496;2023-04-06T12:54:29;101388.13;;;16.43;34.21
26697;BME280;14312;52.614;13.496;2023-04-06T12:57:15;101381.81;;;16.65;33.59
26697;BME280;14312;52.614;13.496;2023-04-06T13:00:02;101385.41;;;16.86;33.79
26697;BME280;14312;52.614;13.496;2023-04-06T13:02:48;101382.78;;;17.06;34.05
26697;BME280;14312;52.614;13.496;2023-04-06T13:05:34;101370.22;;;17.32;34.01
26697;BME280;14312;52.614;13.496;2023-04-06T13:08:20;101372.38;;;17.55;34.17
26697;BME280;14312;52.614;13.496;2023-04-06T13:11:07;101370.28;;;17.82;33.90
26697;BME280;14312;52.614;13.496;2023-04-06T13:13:56;101374.31;;;18.05;33.40
26697;BME280;14312;52.614;13.496;2023-04-06T13:16:42;101370.56;;;18.11;33.32
26697;BME280;14312;52.614;13.496;2023-04-06T13:19:28;101368.63;;;18.12;32.66
26697;BME280;14312;52.614;13.496;2023-04-06T13:22:14;101361.09;;;18.24;32.97
26697;BME280;14312;52.614;13.496;2023-04-06T13:25:01;101360.47;;;18.57;32.04
26697;BME280;14312;52.614;13.496;2023-04-06T13:27:47;101359.47;;;18.97;31.65
26697;BME280;14312;52.614;13.496;2023-04-06T13:30:34;101359.81;;;19.35;31.21
26697;BME280;14312;52.614;13.496;2023-04-06T13:33:20;101350.94;;;19.68;31.05
26697;BME280;14312;52.614;13.496;2023-04-06T13:36:07;101347.41;;;20.02;30.41
26697;BME280;14312;52.614;13.496;2023-04-06T13:38:53;101343.06;;;20.29;30.93
26697;BME280;14312;52.614;13.496;2023-04-06T13:41:41;101347.66;;;20.58;30.93
26697;BME280;14312;52.614;13.496;2023-04-06T13:44:28;101347.56;;;20.87;30.27
26697;BME280;14312;52.614;13.496;2023-04-06T13:47:14;101346.47;;;21.06;31.04
26697;BME280;14312;52.614;13.496;2023-04-06T13:50:01;101340.59;;;21.23;30.24
26697;BME280;14312;52.614;13.496;2023-04-06T13:52:47;101337.78;;;21.28;30.17
26697;BME280;14312;52.614;13.496;2023-04-06T13:55:33;101341.03;;;21.30;30.03
26697;BME280;14312;52.614;13.496;2023-04-06T13:58:19;101343.78;;;21.25;30.36
26697;BME280;14312;52.614;13.496;2023-04-06T14:01:08;101341.03;;;21.30;30.07
26697;BME280;14312;52.614;13.496;2023-04-06T14:03:55;101331.19;;;21.34;30.39
26697;BME280;14312;52.614;13.496;2023-04-06T14:06:40;101333.09;;;21.34;30.20
26697;BME280;14312;52.614;13.496;2023-04-06T14:09:27;101340.06;;;21.21;30.04
26697;BME280;14312;52.614;13.496;2023-04-06T14:12:13;101325.59;;;21.07;30.23
26697;BME280;14312;52.614;13.496;2023-04-06T14:14:59;101326.19;;;21.04;30.68
26697;BME280;14312;52.614;13.496;2023-04-06T14:17:45;101328.66;;;21.24;30.79
26697;BME280;14312;52.614;13.496;2023-04-06T14:20:32;101339.19;;;21.44;30.20
26697;BME280;14312;52.614;13.496;2023-04-06T14:23:18;101328.41;;;21.39;29.87
26697;BME280;14312;52.614;13.496;2023-04-06T14:26:06;101330.31;;;21.20;30.02